createdAt,value
2023-02-27T00:03:15.411Z,-0.46
2023-02-27T00:08:18.422Z,-0.50
2023-02-27T00:13:21.540Z,-0.52
2023-02-27T00:18:24.538Z,-0.54
2023-02-27T00:23:28.872Z,-0.59
2023-02-27T00:28:32.092Z,-0.61
2023-02-27T00:33:35.088Z,-0.62
2023-02-27T00:38:37.992Z,-0.65
2023-02-27T00:43:41.203Z,-0.66
2023-02-27T00:48:44.108Z,-0.69
2023-02-27T00:53:47.225Z,-0.73
2023-02-27T00:58:50.323Z,-0.73
2023-02-27T01:03:53.328Z,-0.73
2023-02-27T01:08:56.337Z,-0.72
2023-02-27T01:13:59.446Z,-0.76
2023-02-27T01:19:02.871Z,-0.76
2023-02-27T01:24:06.331Z,-0.77
2023-02-27T01:29:09.185Z,-0.79
2023-02-27T01:34:12.193Z,-0.77
2023-02-27T01:39:15.199Z,-0.80
2023-02-27T01:44:18.797Z,-0.87
2023-02-27T01:49:32.473Z,-0.89
2023-02-27T01:54:38.960Z,-0.91
2023-02-27T01:59:43.518Z,-0.90
2023-02-27T02:04:47.436Z,-0.89
2023-02-27T02:09:54.016Z,-0.90
2023-02-27T02:14:57.134Z,-0.90
2023-02-27T02:20:32.492Z,-0.88
2023-02-27T02:26:04.277Z,-0.88
2023-02-27T02:31:10.044Z,-0.93
2023-02-27T02:36:15.822Z,-0.95
2023-02-27T02:41:40.124Z,-0.99
2023-02-27T02:46:56.957Z,-1.01
2023-02-27T02:52:10.922Z,-1.02
2023-02-27T02:57:29.360Z,-1.02
2023-02-27T03:02:37.731Z,-1.03
2023-02-27T03:07:53.335Z,-1.02
2023-02-27T03:13:02.371Z,-1.01
2023-02-27T03:18:19.726Z,-1.01
2023-02-27T03:23:38.588Z,-1.04
2023-02-27T03:28:55.519Z,-1.06
2023-02-27T03:34:11.737Z,-1.04
2023-02-27T03:39:47.522Z,-1.01
2023-02-27T03:45:13.869Z,-1.07
2023-02-27T03:50:17.175Z,-1.17
2023-02-27T03:55:35.055Z,-1.23
2023-02-27T04:00:38.151Z,-1.28
2023-02-27T04:05:41.817Z,-1.40
2023-02-27T04:11:12.011Z,-1.48
2023-02-27T04:16:48.703Z,-1.56
2023-02-27T04:22:10.656Z,-1.62
2023-02-27T04:28:04.658Z,-1.72
2023-02-27T04:33:09.519Z,-1.85
2023-02-27T04:38:35.383Z,-1.94
2023-02-27T04:43:40.233Z,-2.05
2023-02-27T04:48:55.201Z,-2.15
2023-02-27T04:54:09.568Z,-2.23
2023-02-27T04:59:20.598Z,-2.24
2023-02-27T05:04:26.345Z,-2.28
2023-02-27T05:09:41.629Z,-2.31
2023-02-27T05:15:10.239Z,-2.36
2023-02-27T05:20:15.238Z,-2.37
2023-02-27T05:25:29.739Z,-2.38
2023-02-27T05:30:46.403Z,-2.41
2023-02-27T05:36:06.219Z,-2.43
2023-02-27T05:41:17.417Z,-2.46
2023-02-27T05:46:28.482Z,-2.45
2023-02-27T05:51:35.441Z,-2.36
2023-02-27T05:56:40.502Z,-2.38
2023-02-27T06:01:46.199Z,-2.38
2023-02-27T06:06:49.416Z,-2.35
2023-02-27T06:11:52.327Z,-2.23
2023-02-27T06:16:55.471Z,-2.05
2023-02-27T06:21:58.440Z,-1.87
2023-02-27T06:27:01.343Z,-1.77
2023-02-27T06:32:04.387Z,-1.68
2023-02-27T06:37:07.450Z,-1.52
2023-02-27T06:42:10.872Z,-1.37
2023-02-27T06:47:13.980Z,-1.21
2023-02-27T06:52:17.081Z,-1.00
2023-02-27T06:57:20.105Z,-0.78
2023-02-27T07:02:26.250Z,-0.61
2023-02-27T07:07:36.324Z,-0.38
2023-02-27T07:12:41.133Z,-0.22
2023-02-27T07:17:44.099Z,-0.12
2023-02-27T07:22:47.308Z,-0.00
2023-02-27T07:27:51.140Z,0.19
2023-02-27T07:32:54.239Z,0.45
2023-02-27T07:37:57.358Z,0.75
2023-02-27T07:43:00.473Z,0.97
2023-02-27T07:48:03.580Z,1.15
2023-02-27T07:53:08.206Z,1.28
2023-02-27T07:58:11.337Z,1.18
2023-02-27T08:03:14.537Z,1.14
2023-02-27T08:08:18.056Z,1.01
2023-02-27T08:13:42.318Z,0.92
2023-02-27T08:18:44.349Z,0.87
2023-02-27T08:23:47.357Z,0.84
2023-02-27T08:28:50.635Z,0.94
2023-02-27T08:34:01.099Z,1.04
2023-02-27T08:39:11.008Z,1.19
2023-02-27T08:44:14.017Z,1.37
2023-02-27T08:49:17.149Z,1.72
2023-02-27T08:54:20.958Z,1.71
2023-02-27T08:59:24.057Z,1.44
2023-02-27T09:04:27.479Z,1.33
2023-02-27T09:09:30.322Z,1.21
2023-02-27T09:14:33.295Z,1.16
2023-02-27T09:19:36.598Z,1.28
2023-02-27T09:24:39.705Z,1.39
2023-02-27T09:29:43.018Z,1.45
2023-02-27T09:34:46.028Z,1.57
2023-02-27T09:39:48.933Z,1.63
2023-02-27T09:44:56.856Z,1.76
2023-02-27T09:50:04.773Z,1.86
2023-02-27T09:55:20.589Z,1.89
2023-02-27T10:00:42.126Z,1.87
2023-02-27T10:06:00.597Z,1.91
2023-02-27T10:11:12.227Z,2.03
2023-02-27T10:16:19.265Z,2.17
2023-02-27T10:21:31.027Z,2.11
2023-02-27T10:26:38.684Z,2.18
2023-02-27T10:31:44.431Z,1.99
2023-02-27T10:36:48.081Z,1.97
2023-02-27T10:41:52.141Z,2.08
2023-02-27T10:46:55.038Z,1.85
2023-02-27T10:52:24.180Z,1.91
2023-02-27T10:57:30.780Z,2.17
2023-02-27T11:02:40.535Z,2.40
2023-02-27T11:07:45.082Z,2.42
2023-02-27T11:13:06.678Z,2.17
2023-02-27T11:18:20.736Z,1.96
2023-02-27T11:23:25.240Z,2.12
2023-02-27T11:28:30.709Z,2.24
2023-02-27T11:33:41.925Z,2.33
2023-02-27T11:38:55.566Z,2.41
2023-02-27T11:44:02.362Z,2.41
2023-02-27T11:49:17.636Z,2.41
2023-02-27T11:54:34.886Z,2.49
2023-02-27T11:59:45.049Z,2.57
2023-02-27T12:05:42.226Z,2.61
2023-02-27T12:10:52.906Z,2.77
2023-02-27T12:16:16.830Z,2.91
2023-02-27T12:21:24.450Z,2.88
2023-02-27T12:26:33.085Z,2.67
2023-02-27T12:31:36.111Z,2.55
2023-02-27T12:36:39.285Z,2.62
2023-02-27T12:41:44.232Z,2.47
2023-02-27T12:46:59.414Z,2.48
2023-02-27T12:52:05.103Z,2.56
2023-02-27T12:57:08.198Z,2.68
2023-02-27T13:02:49.914Z,2.81
2023-02-27T13:08:24.263Z,2.73
2023-02-27T13:13:38.840Z,2.57
2023-02-27T13:18:55.082Z,2.43
2023-02-27T13:24:32.483Z,2.38
2023-02-27T13:29:41.003Z,2.37
2023-02-27T13:34:50.126Z,2.45
2023-02-27T13:40:01.394Z,2.49
2023-02-27T13:45:26.072Z,2.55
2023-02-27T13:50:29.175Z,2.67
2023-02-27T13:55:37.818Z,2.70
2023-02-27T14:00:40.926Z,2.71
2023-02-27T14:05:46.896Z,2.63
2023-02-27T14:11:11.819Z,2.64
2023-02-27T14:16:44.213Z,2.58
2023-02-27T14:22:04.220Z,2.55
2023-02-27T14:27:23.257Z,2.50
2023-02-27T14:32:33.994Z,2.41
2023-02-27T14:37:37.213Z,2.38
2023-02-27T14:43:19.424Z,2.38
2023-02-27T14:48:27.939Z,2.24
2023-02-27T14:53:30.963Z,2.10
2023-02-27T14:58:34.180Z,2.09
2023-02-27T15:03:46.972Z,2.11
2023-02-27T15:08:53.335Z,2.12
2023-02-27T15:14:06.738Z,2.03
2023-02-27T15:19:17.748Z,1.91
2023-02-27T15:24:33.198Z,1.80
2023-02-27T15:29:44.538Z,1.68
2023-02-27T15:34:47.763Z,1.57
2023-02-27T15:39:51.868Z,1.48
2023-02-27T15:44:55.906Z,1.40
2023-02-27T15:50:07.424Z,1.28
2023-02-27T15:55:15.066Z,1.17
2023-02-27T16:00:20.561Z,1.01
2023-02-27T16:05:30.732Z,0.84
2023-02-27T16:10:44.841Z,0.66
2023-02-27T16:16:01.589Z,0.49
2023-02-27T16:21:16.302Z,0.33
2023-02-27T16:26:33.283Z,0.16
2023-02-27T16:31:39.100Z,0.01
2023-02-27T16:36:51.912Z,-0.12
2023-02-27T16:41:57.052Z,-0.26
2023-02-27T16:47:00.157Z,-0.35
2023-02-27T16:52:04.093Z,-0.42
2023-02-27T16:57:07.106Z,-0.51
2023-02-27T17:02:16.275Z,-0.58
2023-02-27T17:07:20.073Z,-0.66
2023-02-27T17:12:23.035Z,-0.79
2023-02-27T17:17:26.195Z,-0.86
2023-02-27T17:22:29.214Z,-0.90
2023-02-27T17:27:32.511Z,-0.94
2023-02-27T17:32:35.517Z,-1.01
2023-02-27T17:37:39.040Z,-1.10
2023-02-27T17:42:42.054Z,-1.17
2023-02-27T17:47:45.065Z,-1.26
2023-02-27T17:52:48.592Z,-1.38
2023-02-27T17:57:51.682Z,-1.48
2023-02-27T18:02:54.702Z,-1.55
2023-02-27T18:07:57.785Z,-1.62
2023-02-27T18:13:00.691Z,-1.71
2023-02-27T18:18:03.798Z,-1.81
2023-02-27T18:23:08.933Z,-1.88
2023-02-27T18:28:11.963Z,-1.95
2023-02-27T18:33:15.600Z,-2.04
2023-02-27T18:38:19.166Z,-2.14
2023-02-27T18:43:22.721Z,-2.21
2023-02-27T18:48:25.940Z,-2.27
2023-02-27T18:53:29.047Z,-2.38
2023-02-27T18:58:33.000Z,-2.53
2023-02-27T19:03:36.318Z,-2.71
2023-02-27T19:08:39.295Z,-2.91
2023-02-27T19:13:42.309Z,-3.07
2023-02-27T19:18:45.316Z,-3.25
2023-02-27T19:23:48.521Z,-3.43
2023-02-27T19:28:54.212Z,-3.61
2023-02-27T19:33:58.036Z,-3.70
2023-02-27T19:39:01.845Z,-3.67
2023-02-27T19:44:05.220Z,-3.62
2023-02-27T19:49:08.158Z,-3.63
2023-02-27T19:54:19.042Z,-3.69
2023-02-27T19:59:25.504Z,-3.74
2023-02-27T20:04:28.918Z,-3.73
2023-02-27T20:09:33.460Z,-3.76
2023-02-27T20:14:36.921Z,-3.82
2023-02-27T20:19:40.218Z,-3.91
2023-02-27T20:24:44.878Z,-3.97
2023-02-27T20:29:54.819Z,-3.96
2023-02-27T20:34:57.943Z,-3.95
2023-02-27T20:40:02.128Z,-3.97
2023-02-27T20:45:06.000Z,-3.99
2023-02-27T20:50:11.377Z,-4.02
2023-02-27T20:55:14.286Z,-4.06
2023-02-27T21:00:18.813Z,-4.14
2023-02-27T21:05:21.831Z,-4.25
2023-02-27T21:10:25.521Z,-4.36
2023-02-27T21:15:28.557Z,-4.48
2023-02-27T21:20:31.988Z,-4.60
2023-02-27T21:25:35.081Z,-4.67
2023-02-27T21:30:38.190Z,-4.63
2023-02-27T21:35:46.853Z,-4.57
2023-02-27T21:40:50.032Z,-4.59
2023-02-27T21:45:55.981Z,-4.67
2023-02-27T21:51:00.483Z,-4.72
2023-02-27T21:56:09.793Z,-4.77
2023-02-27T22:01:19.386Z,-4.83
2023-02-27T22:06:24.409Z,-4.89
2023-02-27T22:11:29.027Z,-4.96
2023-02-27T22:16:32.295Z,-5.07
2023-02-27T22:21:36.568Z,-5.17
2023-02-27T22:26:39.999Z,-5.23
2023-02-27T22:31:43.808Z,-5.21
2023-02-27T22:36:52.822Z,-5.19
2023-02-27T22:41:56.907Z,-5.16
2023-02-27T22:47:00.045Z,-5.13
2023-02-27T22:52:03.058Z,-5.12
2023-02-27T22:57:06.168Z,-5.16
2023-02-27T23:02:10.355Z,-5.27
2023-02-27T23:07:13.407Z,-5.34
2023-02-27T23:12:16.419Z,-5.37
2023-02-27T23:17:19.521Z,-5.38
2023-02-27T23:22:22.628Z,-5.39
2023-02-27T23:27:26.580Z,-5.49
2023-02-27T23:32:29.715Z,-5.60
2023-02-27T23:37:32.674Z,-5.66
2023-02-27T23:42:35.785Z,-5.71
2023-02-27T23:47:52.199Z,-5.76
2023-02-27T23:52:57.464Z,-5.85
2023-02-27T23:58:01.781Z,-5.95
